createdAt,value
2019-01-24T00:00:04.428Z,0.00
2019-01-24T00:01:04.396Z,0.00
2019-01-24T00:02:04.414Z,0.00
2019-01-24T00:03:04.391Z,0.00
2019-01-24T00:04:04.370Z,0.00
2019-01-24T00:05:04.357Z,0.00
2019-01-24T00:06:04.377Z,0.00
2019-01-24T00:07:04.339Z,0.00
2019-01-24T00:08:04.341Z,0.00
2019-01-24T00:09:04.321Z,0.00
2019-01-24T00:10:04.312Z,0.00
2019-01-24T00:11:04.293Z,0.00
2019-01-24T00:12:04.317Z,0.00
2019-01-24T00:13:04.285Z,0.00
2019-01-24T00:14:04.257Z,0.00
2019-01-24T00:15:04.256Z,0.00
2019-01-24T00:16:04.261Z,0.00
2019-01-24T00:17:04.257Z,0.00
2019-01-24T00:18:04.260Z,0.00
2019-01-24T00:19:04.249Z,0.00
2019-01-24T00:20:04.215Z,0.00
2019-01-24T00:21:04.190Z,0.00
2019-01-24T00:22:04.211Z,0.00
2019-01-24T00:23:04.195Z,0.00
2019-01-24T00:24:04.165Z,0.00
2019-01-24T00:25:04.151Z,0.00
2019-01-24T00:26:04.155Z,0.00
2019-01-24T00:27:04.159Z,0.00
2019-01-24T00:28:04.124Z,0.00
2019-01-24T00:29:04.109Z,0.00
2019-01-24T00:30:04.089Z,0.00
2019-01-24T00:31:04.079Z,0.00
2019-01-24T00:32:04.076Z,0.00
2019-01-24T00:33:04.119Z,0.00
2019-01-24T00:34:04.049Z,0.00
2019-01-24T00:35:04.033Z,0.00
2019-01-24T00:36:04.043Z,0.00
2019-01-24T00:37:04.019Z,0.00
2019-01-24T00:38:03.999Z,0.00
2019-01-24T00:39:04.034Z,0.00
2019-01-24T00:40:03.991Z,0.00
2019-01-24T00:41:03.984Z,0.00
2019-01-24T00:42:03.963Z,0.00
2019-01-24T00:43:03.959Z,0.00
2019-01-24T00:44:03.954Z,0.00
2019-01-24T00:45:03.976Z,0.00
2019-01-24T00:46:03.992Z,0.00
2019-01-24T00:47:03.909Z,0.00
2019-01-24T00:48:03.915Z,0.00
2019-01-24T00:49:03.909Z,0.00
2019-01-24T00:50:03.929Z,0.00
2019-01-24T00:51:03.871Z,0.00
2019-01-24T00:52:03.868Z,0.00
2019-01-24T00:53:03.902Z,0.00
2019-01-24T00:54:03.840Z,0.00
2019-01-24T00:55:03.850Z,0.00
2019-01-24T00:56:03.862Z,0.00
2019-01-24T00:57:03.806Z,0.00
2019-01-24T00:58:03.798Z,0.00
2019-01-24T00:59:03.806Z,0.00
2019-01-24T01:00:03.781Z,0.00
2019-01-24T01:01:03.797Z,0.00
2019-01-24T01:02:03.753Z,0.00
2019-01-24T01:03:03.799Z,0.00
2019-01-24T01:04:03.736Z,0.00
2019-01-24T01:05:03.716Z,0.00
2019-01-24T01:06:03.710Z,0.00
2019-01-24T01:07:03.701Z,0.00
2019-01-24T01:08:03.693Z,0.00
2019-01-24T01:09:03.765Z,0.00
2019-01-24T01:10:03.675Z,0.00
2019-01-24T01:11:03.670Z,0.00
2019-01-24T01:12:03.647Z,0.00
2019-01-24T01:13:03.634Z,0.00
2019-01-24T01:14:03.627Z,0.00
2019-01-24T01:15:03.677Z,0.00
2019-01-24T01:16:03.604Z,0.00
2019-01-24T01:17:03.608Z,0.00
2019-01-24T01:18:03.587Z,0.00
2019-01-24T01:19:03.579Z,0.00
2019-01-24T01:20:03.568Z,0.00
2019-01-24T01:21:03.619Z,0.00
2019-01-24T01:22:03.550Z,0.00
2019-01-24T01:23:03.563Z,0.00
2019-01-24T01:24:03.543Z,0.00
2019-01-24T01:25:03.510Z,0.00
2019-01-24T01:26:03.503Z,0.00
2019-01-24T01:27:03.537Z,0.00
2019-01-24T01:28:03.486Z,0.00
2019-01-24T01:29:03.468Z,0.00
2019-01-24T01:30:03.480Z,0.00
2019-01-24T01:31:03.445Z,0.00
2019-01-24T01:32:03.494Z,0.00
2019-01-24T01:33:03.417Z,0.00
2019-01-24T01:34:03.452Z,0.00
2019-01-24T01:35:03.402Z,0.00
2019-01-24T01:36:03.398Z,0.00
2019-01-24T01:37:03.379Z,0.00
2019-01-24T01:38:03.396Z,0.00
2019-01-24T01:39:03.425Z,0.00
2019-01-24T01:40:03.364Z,0.00
2019-01-24T01:41:03.348Z,0.00
2019-01-24T01:42:03.327Z,0.00
2019-01-24T01:43:03.330Z,0.00
2019-01-24T01:44:03.308Z,0.00
2019-01-24T01:45:03.337Z,0.00
2019-01-24T01:46:03.294Z,0.00
2019-01-24T01:47:03.283Z,0.00
2019-01-24T01:48:03.272Z,0.00
2019-01-24T01:49:03.254Z,0.00
2019-01-24T01:50:03.284Z,0.00
2019-01-24T01:51:03.272Z,0.00
2019-01-24T01:52:03.252Z,0.00
2019-01-24T01:53:03.243Z,0.00
2019-01-24T01:54:03.276Z,0.00
2019-01-24T01:55:03.221Z,0.00
2019-01-24T01:56:03.188Z,0.00
2019-01-24T01:57:03.172Z,0.00
2019-01-24T01:58:03.184Z,0.00
2019-01-24T01:59:03.155Z,0.00
2019-01-24T02:00:03.191Z,0.00
2019-01-24T02:01:03.136Z,0.00
2019-01-24T02:02:03.127Z,0.00
2019-01-24T02:03:03.122Z,0.00
2019-01-24T02:04:03.106Z,0.00
2019-01-24T02:05:03.091Z,0.00
2019-01-24T02:06:03.150Z,0.00
2019-01-24T02:07:03.082Z,0.00
2019-01-24T02:08:03.118Z,0.00
2019-01-24T02:09:03.066Z,0.00
2019-01-24T02:10:03.049Z,0.00
2019-01-24T02:11:03.082Z,0.00
2019-01-24T02:12:03.035Z,0.00
2019-01-24T02:13:03.013Z,0.00
2019-01-24T02:14:03.005Z,0.00
2019-01-24T02:15:03.000Z,0.00
2019-01-24T02:16:02.969Z,0.00
2019-01-24T02:17:03.010Z,0.00
2019-01-24T02:18:02.977Z,0.00
2019-01-24T02:19:02.976Z,0.00
2019-01-24T02:20:02.937Z,0.00
2019-01-24T02:21:02.923Z,0.00
2019-01-24T02:22:02.965Z,0.00
2019-01-24T02:23:02.905Z,0.00
2019-01-24T02:24:02.892Z,0.00
2019-01-24T02:25:02.880Z,0.00
2019-01-24T02:26:02.884Z,0.00
2019-01-24T02:27:02.853Z,0.00
2019-01-24T02:28:02.897Z,0.00
2019-01-24T02:29:02.837Z,0.00
2019-01-24T02:30:02.822Z,0.00
2019-01-24T02:31:02.826Z,0.00
2019-01-24T02:32:02.834Z,0.00
2019-01-24T02:33:02.792Z,0.00
2019-01-24T02:34:02.789Z,0.00
2019-01-24T02:35:02.770Z,0.00
2019-01-24T02:36:02.769Z,0.00
2019-01-24T02:37:02.788Z,0.00
2019-01-24T02:38:02.804Z,0.00
2019-01-24T02:39:02.738Z,0.00
2019-01-24T02:40:02.713Z,0.00
2019-01-24T02:41:02.763Z,0.00
2019-01-24T02:42:02.694Z,0.00
2019-01-24T02:43:02.702Z,0.00
2019-01-24T02:44:02.691Z,0.00
2019-01-24T02:45:02.670Z,0.00
2019-01-24T02:46:02.661Z,0.00
2019-01-24T02:47:02.689Z,0.00
2019-01-24T02:48:09.395Z,0.00
2019-01-24T02:49:02.631Z,0.00
2019-01-24T02:50:02.617Z,0.00
2019-01-24T02:51:02.654Z,0.00
2019-01-24T02:52:02.602Z,0.00
2019-01-24T02:53:02.581Z,0.00
2019-01-24T02:54:02.580Z,0.00
2019-01-24T02:55:02.610Z,0.00
2019-01-24T02:56:02.557Z,0.00
2019-01-24T02:57:02.541Z,0.00
2019-01-24T02:58:02.526Z,0.00
2019-01-24T02:59:02.508Z,0.00
2019-01-24T03:00:02.515Z,0.00
2019-01-24T03:01:02.572Z,0.00
2019-01-24T03:02:02.483Z,0.00
2019-01-24T03:03:02.545Z,0.00
2019-01-24T03:04:02.484Z,0.00
2019-01-24T03:05:02.457Z,0.00
2019-01-24T03:06:02.448Z,0.00
2019-01-24T03:07:02.489Z,0.00
2019-01-24T03:08:02.425Z,0.00
2019-01-24T03:09:02.413Z,0.00
2019-01-24T03:10:02.405Z,0.00
2019-01-24T03:11:02.451Z,0.00
2019-01-24T03:12:02.398Z,0.00
2019-01-24T03:13:02.379Z,0.00
2019-01-24T03:14:02.353Z,0.00
2019-01-24T03:15:02.403Z,0.00
2019-01-24T03:16:02.451Z,0.00
2019-01-24T03:17:02.358Z,0.00
2019-01-24T03:18:02.337Z,0.00
2019-01-24T03:19:02.303Z,0.00
2019-01-24T03:20:02.300Z,0.00
2019-01-24T03:21:02.289Z,0.00
2019-01-24T03:22:02.485Z,0.00
2019-01-24T03:23:02.277Z,0.00
2019-01-24T03:24:02.258Z,0.00
2019-01-24T03:25:02.244Z,0.00
2019-01-24T03:26:02.231Z,0.00
2019-01-24T03:27:02.249Z,0.00
2019-01-24T03:28:02.250Z,0.00
2019-01-24T03:29:02.209Z,0.00
2019-01-24T03:30:02.208Z,0.00
2019-01-24T03:31:02.189Z,0.00
2019-01-24T03:32:02.181Z,0.00
2019-01-24T03:33:02.208Z,0.00
2019-01-24T03:34:02.159Z,0.00
2019-01-24T03:35:04.446Z,0.00
2019-01-24T03:36:02.127Z,0.00
2019-01-24T03:37:02.122Z,0.00
2019-01-24T03:38:02.110Z,0.00
2019-01-24T03:39:02.157Z,0.00
2019-01-24T03:40:02.109Z,0.00
2019-01-24T03:41:02.074Z,0.00
2019-01-24T03:42:02.076Z,0.00
2019-01-24T03:43:02.056Z,0.00
2019-01-24T03:44:02.042Z,0.00
2019-01-24T03:45:02.094Z,0.00
2019-01-24T03:46:02.055Z,0.00
2019-01-24T03:47:02.006Z,0.00
2019-01-24T03:48:02.002Z,0.00
2019-01-24T03:49:01.985Z,0.00
2019-01-24T03:50:02.000Z,0.00
2019-01-24T03:51:02.058Z,0.00
2019-01-24T03:52:01.959Z,0.00
2019-01-24T03:53:01.947Z,0.00
2019-01-24T03:54:01.941Z,0.00
2019-01-24T03:55:01.935Z,0.00
2019-01-24T03:56:01.957Z,0.00
2019-01-24T03:57:01.925Z,0.00
2019-01-24T03:58:01.891Z,0.00
2019-01-24T03:59:01.887Z,0.00
2019-01-24T04:00:01.885Z,0.00
2019-01-24T04:01:01.867Z,0.00
2019-01-24T04:02:01.888Z,0.00
2019-01-24T04:03:01.865Z,0.00
2019-01-24T04:04:01.847Z,0.00
2019-01-24T04:05:01.831Z,0.00
2019-01-24T04:06:01.814Z,0.00
2019-01-24T04:07:01.801Z,0.00
2019-01-24T04:08:01.852Z,0.00
2019-01-24T04:09:01.781Z,0.00
2019-01-24T04:10:01.821Z,0.00
2019-01-24T04:11:01.761Z,0.00
2019-01-24T04:12:01.756Z,0.00
2019-01-24T04:13:01.780Z,0.00
2019-01-24T04:14:01.729Z,0.00
2019-01-24T04:15:01.716Z,0.00
2019-01-24T04:16:01.704Z,0.00
2019-01-24T04:17:01.701Z,0.00
2019-01-24T04:18:01.721Z,0.00
2019-01-24T04:19:01.674Z,0.00
2019-01-24T04:20:01.677Z,0.00
2019-01-24T04:21:01.648Z,0.00
2019-01-24T04:22:01.638Z,0.00
2019-01-24T04:23:01.671Z,0.00
2019-01-24T04:24:01.634Z,0.00
2019-01-24T04:25:01.605Z,0.00
2019-01-24T04:26:01.606Z,0.00
2019-01-24T04:27:01.589Z,0.00
2019-01-24T04:28:01.571Z,0.00
2019-01-24T04:29:01.587Z,0.00
2019-01-24T04:30:01.656Z,0.00
2019-01-24T04:31:01.587Z,0.00
2019-01-24T04:32:01.557Z,0.00
2019-01-24T04:33:01.520Z,0.00
2019-01-24T04:34:01.515Z,0.00
2019-01-24T04:35:01.514Z,0.00
2019-01-24T04:36:01.541Z,0.00
2019-01-24T04:37:01.485Z,0.00
2019-01-24T04:38:01.483Z,0.00
2019-01-24T04:39:01.454Z,0.00
2019-01-24T04:40:01.457Z,0.00
2019-01-24T04:41:01.447Z,0.00
2019-01-24T04:42:01.467Z,0.00
2019-01-24T04:43:01.430Z,0.00
2019-01-24T04:44:01.468Z,0.00
2019-01-24T04:45:01.609Z,0.00
2019-01-24T04:46:01.421Z,0.00
2019-01-24T04:47:01.378Z,0.00
2019-01-24T04:48:01.367Z,0.00
2019-01-24T04:49:01.454Z,0.00
2019-01-24T04:50:01.371Z,0.00
2019-01-24T04:51:01.331Z,0.00
2019-01-24T04:52:01.326Z,0.00
2019-01-24T04:53:01.323Z,0.00
2019-01-24T04:54:01.316Z,0.00
2019-01-24T04:55:01.344Z,0.00
2019-01-24T04:56:01.289Z,0.00
2019-01-24T04:57:01.309Z,0.00
2019-01-24T04:58:01.263Z,0.00
2019-01-24T04:59:01.263Z,0.00
2019-01-24T05:00:01.389Z,0.00
2019-01-24T05:01:01.286Z,0.00
2019-01-24T05:02:01.242Z,0.00
2019-01-24T05:03:01.209Z,0.00
2019-01-24T05:04:01.196Z,0.00
2019-01-24T05:05:01.186Z,0.00
2019-01-24T05:06:01.192Z,0.00
2019-01-24T05:07:01.234Z,0.00
2019-01-24T05:08:01.155Z,0.00
2019-01-24T05:09:01.177Z,0.00
2019-01-24T05:10:02.318Z,0.00
2019-01-24T05:11:01.131Z,0.00
2019-01-24T05:12:01.114Z,0.00
2019-01-24T05:13:01.218Z,0.00
2019-01-24T05:14:01.085Z,0.00
2019-01-24T05:15:01.110Z,0.00
2019-01-24T05:16:01.133Z,0.00
2019-01-24T05:17:01.073Z,0.00
2019-01-24T05:18:01.062Z,0.00
2019-01-24T05:19:01.039Z,0.00
2019-01-24T05:20:01.018Z,0.00
2019-01-24T05:21:01.018Z,0.00
2019-01-24T05:22:01.038Z,0.00
2019-01-24T05:23:01.006Z,0.00
2019-01-24T05:24:00.977Z,0.00
2019-01-24T05:25:01.021Z,0.00
2019-01-24T05:26:00.968Z,0.00
2019-01-24T05:27:00.991Z,0.00
2019-01-24T05:28:01.193Z,0.00
2019-01-24T05:29:00.941Z,0.00
2019-01-24T05:30:00.919Z,0.00
2019-01-24T05:31:00.922Z,0.00
2019-01-24T05:32:00.912Z,0.00
2019-01-24T05:33:01.106Z,0.00
2019-01-24T05:34:00.881Z,0.00
2019-01-24T05:35:00.882Z,0.00
2019-01-24T05:36:00.857Z,0.00
2019-01-24T05:37:00.844Z,0.00
2019-01-24T05:38:00.862Z,0.00
2019-01-24T05:39:00.955Z,0.00
2019-01-24T05:40:00.833Z,0.00
2019-01-24T05:41:00.822Z,0.00
2019-01-24T05:42:00.786Z,0.00
2019-01-24T05:43:00.780Z,0.00
2019-01-24T05:44:00.772Z,0.00
2019-01-24T05:45:00.807Z,0.00
2019-01-24T05:46:00.767Z,0.00
2019-01-24T05:47:00.775Z,0.00
2019-01-24T05:48:00.719Z,0.00
2019-01-24T05:49:00.752Z,0.00
2019-01-24T05:50:00.700Z,0.00
2019-01-24T05:51:00.755Z,0.00
2019-01-24T05:52:00.692Z,0.00
2019-01-24T05:53:00.686Z,0.00
2019-01-24T05:54:00.663Z,0.00
2019-01-24T05:55:00.662Z,0.00
2019-01-24T05:56:00.639Z,0.00
2019-01-24T05:57:00.687Z,0.00
2019-01-24T05:58:00.615Z,0.00
2019-01-24T05:59:00.617Z,0.00
2019-01-24T06:00:00.611Z,0.00
2019-01-24T06:01:00.602Z,0.00
2019-01-24T06:02:00.647Z,0.00
2019-01-24T06:03:00.575Z,0.00
2019-01-24T06:04:00.593Z,0.00
2019-01-24T06:05:00.554Z,0.00
2019-01-24T06:06:00.533Z,0.00
2019-01-24T06:07:00.591Z,0.00
2019-01-24T06:08:00.524Z,0.00
2019-01-24T06:09:00.514Z,0.00
2019-01-24T06:10:00.496Z,0.00
2019-01-24T06:11:00.490Z,0.00
2019-01-24T06:12:00.541Z,0.00
2019-01-24T06:13:00.504Z,0.00
2019-01-24T06:14:00.461Z,0.00
2019-01-24T06:15:00.440Z,0.00
2019-01-24T06:16:00.439Z,0.00
2019-01-24T06:17:00.439Z,0.00
2019-01-24T06:18:00.483Z,0.00
2019-01-24T06:19:15.395Z,0.00
2019-01-24T06:20:00.399Z,0.00
2019-01-24T06:21:00.389Z,0.00
2019-01-24T06:22:00.371Z,0.00
2019-01-24T06:23:00.401Z,0.00
2019-01-24T06:24:00.395Z,0.00
2019-01-24T06:25:00.336Z,0.00
2019-01-24T06:26:00.326Z,0.00
2019-01-24T06:27:00.320Z,0.00
2019-01-24T06:28:00.308Z,0.00
2019-01-24T06:29:02.831Z,0.00
2019-01-24T06:30:00.342Z,0.00
2019-01-24T06:31:00.280Z,0.00
2019-01-24T06:32:00.259Z,0.00
2019-01-24T06:33:00.259Z,0.00
2019-01-24T06:34:00.257Z,0.00
2019-01-24T06:35:00.240Z,0.00
2019-01-24T06:36:00.277Z,0.00
2019-01-24T06:37:00.233Z,0.00
2019-01-24T06:38:00.208Z,0.00
2019-01-24T06:39:00.205Z,0.00
2019-01-24T06:40:00.265Z,0.00
2019-01-24T06:41:00.201Z,0.00
2019-01-24T06:42:00.204Z,0.00
2019-01-24T06:43:00.154Z,0.00
2019-01-24T06:44:00.305Z,0.00
2019-01-24T06:45:00.231Z,0.00
2019-01-24T06:46:00.151Z,0.00
2019-01-24T06:47:00.164Z,0.00
2019-01-24T06:48:00.097Z,0.00
2019-01-24T06:49:00.355Z,0.00
2019-01-24T06:50:00.069Z,0.00
2019-01-24T06:51:00.067Z,0.00
2019-01-24T06:52:00.085Z,0.00
2019-01-24T06:53:00.093Z,0.00
2019-01-24T06:54:00.043Z,0.00
2019-01-24T06:55:00.014Z,0.00
2019-01-24T06:56:00.193Z,0.00
2019-01-24T06:57:00.000Z,0.00
2019-01-24T06:57:59.997Z,0.00
2019-01-24T06:58:59.982Z,0.00
2019-01-24T06:59:59.993Z,0.00
2019-01-24T07:01:00.050Z,0.00
2019-01-24T07:01:59.943Z,0.00
2019-01-24T07:02:59.939Z,5.62
2019-01-24T07:03:59.925Z,5.62
2019-01-24T07:04:59.928Z,5.62
2019-01-24T07:05:59.917Z,5.62
2019-01-24T07:07:00.017Z,5.62
2019-01-24T07:07:59.991Z,5.62
2019-01-24T07:08:59.877Z,5.62
2019-01-24T07:09:59.889Z,5.62
2019-01-24T07:10:59.857Z,5.62
2019-01-24T07:11:59.863Z,5.62
2019-01-24T07:12:59.866Z,5.62
2019-01-24T07:14:00.128Z,11.25
2019-01-24T07:14:59.806Z,11.25
2019-01-24T07:15:59.858Z,11.25
2019-01-24T07:16:59.800Z,11.25
2019-01-24T07:17:59.801Z,11.25
2019-01-24T07:18:59.786Z,11.25
2019-01-24T07:19:59.771Z,11.25
2019-01-24T07:20:59.744Z,11.25
2019-01-24T07:21:59.811Z,16.88
2019-01-24T07:22:59.724Z,16.88
2019-01-24T07:23:59.774Z,16.88
2019-01-24T07:24:59.705Z,16.88
2019-01-24T07:25:59.709Z,16.88
2019-01-24T07:26:59.701Z,16.88
2019-01-24T07:27:59.724Z,16.88
2019-01-24T07:28:59.658Z,16.88
2019-01-24T07:29:59.714Z,16.88
2019-01-24T07:30:59.636Z,16.88
2019-01-24T07:31:59.634Z,16.88
2019-01-24T07:32:59.769Z,22.50
2019-01-24T07:33:59.663Z,22.50
2019-01-24T07:34:59.652Z,22.50
2019-01-24T07:36:02.249Z,22.50
2019-01-24T07:36:59.572Z,22.50
2019-01-24T07:37:59.569Z,28.12
2019-01-24T07:38:59.556Z,28.12
2019-01-24T07:39:59.557Z,28.12
2019-01-24T07:40:59.594Z,28.12
2019-01-24T07:41:59.530Z,28.12
2019-01-24T07:42:59.522Z,33.75
2019-01-24T07:43:59.522Z,33.75
2019-01-24T07:44:59.502Z,33.75
2019-01-24T07:45:59.489Z,33.75
2019-01-24T07:47:00.007Z,33.75
2019-01-24T07:47:59.468Z,33.75
2019-01-24T07:48:59.456Z,33.75
2019-01-24T07:49:59.441Z,33.75
2019-01-24T07:50:59.454Z,39.38
2019-01-24T07:51:59.419Z,39.38
2019-01-24T07:52:59.509Z,45.00
2019-01-24T07:53:59.408Z,45.00
2019-01-24T07:54:59.402Z,45.00
2019-01-24T07:55:59.483Z,45.00
2019-01-24T07:56:59.371Z,45.00
2019-01-24T07:57:59.366Z,50.62
2019-01-24T07:58:59.376Z,50.62
2019-01-24T07:59:59.436Z,50.62
2019-01-24T08:00:59.349Z,56.25
2019-01-24T08:01:59.389Z,56.25
2019-01-24T08:02:59.310Z,56.25
2019-01-24T08:03:59.292Z,56.25
2019-01-24T08:04:59.284Z,56.25
2019-01-24T08:05:59.286Z,61.88
2019-01-24T08:06:59.289Z,61.88
2019-01-24T08:07:59.315Z,61.88
2019-01-24T08:08:59.251Z,67.50
2019-01-24T08:09:59.234Z,67.50
2019-01-24T08:10:59.246Z,73.12
2019-01-24T08:11:59.248Z,78.75
2019-01-24T08:12:59.197Z,84.38
2019-01-24T08:13:59.247Z,84.38
2019-01-24T08:14:59.182Z,84.38
2019-01-24T08:15:59.171Z,78.75
2019-01-24T08:16:59.168Z,78.75
2019-01-24T08:17:59.195Z,84.38
2019-01-24T08:18:59.197Z,84.38
2019-01-24T08:19:59.205Z,78.75
2019-01-24T08:20:59.115Z,84.38
2019-01-24T08:21:59.120Z,84.38
2019-01-24T08:22:59.151Z,84.38
2019-01-24T08:23:59.086Z,84.38
2019-01-24T08:24:59.135Z,84.38
2019-01-24T08:25:59.052Z,84.38
2019-01-24T08:26:59.081Z,90.00
2019-01-24T08:27:59.087Z,90.00
2019-01-24T08:28:59.094Z,95.62
2019-01-24T08:29:59.023Z,95.62
2019-01-24T08:30:59.010Z,95.62
2019-01-24T08:31:58.991Z,95.62
2019-01-24T08:32:59.038Z,95.62
2019-01-24T08:33:58.986Z,95.62
2019-01-24T08:34:58.990Z,95.62
2019-01-24T08:35:58.959Z,101.25
2019-01-24T08:36:58.961Z,101.25
2019-01-24T08:37:58.929Z,101.25
2019-01-24T08:38:58.982Z,95.62
2019-01-24T08:39:58.903Z,95.62
2019-01-24T08:40:58.909Z,101.25
2019-01-24T08:41:58.891Z,106.88
2019-01-24T08:42:58.907Z,106.88
2019-01-24T08:43:58.867Z,106.88
2019-01-24T08:44:58.938Z,106.88
2019-01-24T08:45:58.854Z,106.88
2019-01-24T08:46:58.848Z,101.25
2019-01-24T08:47:58.834Z,101.25
2019-01-24T08:48:58.834Z,106.88
2019-01-24T08:49:58.848Z,101.25
2019-01-24T08:50:58.789Z,101.25
2019-01-24T08:51:58.793Z,101.25
2019-01-24T08:52:58.772Z,101.25
2019-01-24T08:53:58.791Z,112.50
2019-01-24T08:54:58.790Z,123.75
2019-01-24T08:55:58.789Z,129.38
2019-01-24T08:56:58.728Z,129.38
2019-01-24T08:57:58.738Z,123.75
2019-01-24T08:58:58.715Z,118.12
2019-01-24T08:59:58.703Z,123.75
2019-01-24T09:00:58.686Z,129.38
2019-01-24T09:01:58.735Z,135.00
2019-01-24T09:02:58.677Z,140.62
2019-01-24T09:03:58.655Z,151.88
2019-01-24T09:04:58.659Z,151.88
2019-01-24T09:05:58.635Z,151.88
2019-01-24T09:06:58.638Z,146.25
2019-01-24T09:07:58.681Z,135.00
2019-01-24T09:08:58.603Z,135.00
2019-01-24T09:09:59.192Z,135.00
2019-01-24T09:10:58.600Z,129.38
2019-01-24T09:11:58.562Z,129.38
2019-01-24T09:12:58.553Z,135.00
2019-01-24T09:13:58.596Z,140.62
2019-01-24T09:14:58.535Z,140.62
2019-01-24T09:15:58.524Z,135.00
2019-01-24T09:16:58.521Z,129.38
2019-01-24T09:17:58.512Z,118.12
2019-01-24T09:18:58.530Z,118.12
2019-01-24T09:19:58.516Z,118.12
2019-01-24T09:20:58.786Z,118.12
2019-01-24T09:21:58.465Z,123.75
2019-01-24T09:22:58.471Z,123.75
2019-01-24T09:23:58.448Z,123.75
2019-01-24T09:24:58.504Z,123.75
2019-01-24T09:25:58.419Z,123.75
2019-01-24T09:26:58.492Z,129.38
2019-01-24T09:27:58.408Z,135.00
2019-01-24T09:28:58.418Z,135.00
2019-01-24T09:29:58.387Z,135.00
2019-01-24T09:30:58.446Z,135.00
2019-01-24T09:31:58.361Z,129.38
2019-01-24T09:32:58.414Z,129.38
2019-01-24T09:33:58.344Z,123.75
2019-01-24T09:34:58.329Z,129.38
2019-01-24T09:35:58.316Z,135.00
2019-01-24T09:36:59.015Z,140.62
2019-01-24T09:37:58.287Z,135.00
2019-01-24T09:38:58.350Z,135.00
2019-01-24T09:39:58.270Z,135.00
2019-01-24T09:40:58.269Z,140.62
2019-01-24T09:41:58.242Z,140.62
2019-01-24T09:42:58.233Z,140.62
2019-01-24T09:43:58.271Z,135.00
2019-01-24T09:44:58.226Z,129.38
2019-01-24T09:45:58.214Z,135.00
2019-01-24T09:46:58.244Z,146.25
2019-01-24T09:47:58.191Z,151.88
2019-01-24T09:48:58.180Z,163.12
2019-01-24T09:50:00.908Z,157.50
2019-01-24T09:50:58.188Z,151.88
2019-01-24T09:51:58.132Z,163.12
2019-01-24T09:52:58.159Z,174.38
2019-01-24T09:53:58.140Z,180.00
2019-01-24T09:54:58.180Z,174.38
2019-01-24T09:55:58.101Z,174.38
2019-01-24T09:56:58.114Z,168.75
2019-01-24T09:57:58.074Z,168.75
2019-01-24T09:58:58.069Z,163.12
2019-01-24T09:59:58.093Z,157.50
2019-01-24T10:00:58.157Z,163.12
2019-01-24T10:01:58.031Z,163.12
2019-01-24T10:02:58.029Z,157.50
2019-01-24T10:03:58.097Z,163.12
2019-01-24T10:04:58.008Z,174.38
2019-01-24T10:05:57.990Z,185.62
2019-01-24T10:06:57.991Z,191.25
2019-01-24T10:07:57.966Z,174.38
2019-01-24T10:08:57.959Z,163.12
2019-01-24T10:09:58.010Z,157.50
2019-01-24T10:10:57.931Z,151.88
2019-01-24T10:11:57.922Z,146.25
2019-01-24T10:12:58.002Z,140.62
2019-01-24T10:13:57.905Z,146.25
2019-01-24T10:14:57.899Z,146.25
2019-01-24T10:15:57.891Z,146.25
2019-01-24T10:16:57.873Z,140.62
2019-01-24T10:17:57.908Z,140.62
2019-01-24T10:18:57.909Z,140.62
2019-01-24T10:19:57.836Z,135.00
2019-01-24T10:20:57.851Z,135.00
2019-01-24T10:21:57.823Z,140.62
2019-01-24T10:22:57.810Z,151.88
2019-01-24T10:23:57.801Z,146.25
2019-01-24T10:24:57.834Z,146.25
2019-01-24T10:25:57.791Z,146.25
2019-01-24T10:26:57.777Z,146.25
2019-01-24T10:27:57.746Z,146.25
2019-01-24T10:28:57.753Z,146.25
2019-01-24T10:29:57.838Z,151.88
2019-01-24T10:30:57.775Z,168.75
2019-01-24T10:31:57.710Z,168.75
2019-01-24T10:32:57.695Z,168.75
2019-01-24T10:33:57.682Z,168.75
2019-01-24T10:34:57.674Z,163.12
2019-01-24T10:35:57.718Z,168.75
2019-01-24T10:36:57.653Z,157.50
2019-01-24T10:37:57.708Z,151.88
2019-01-24T10:38:57.630Z,151.88
2019-01-24T10:39:57.634Z,146.25
2019-01-24T10:40:57.627Z,146.25
2019-01-24T10:41:57.609Z,151.88
2019-01-24T10:42:57.589Z,146.25
2019-01-24T10:43:57.627Z,146.25
2019-01-24T10:44:57.563Z,140.62
2019-01-24T10:45:57.578Z,140.62
2019-01-24T10:46:57.565Z,140.62
2019-01-24T10:47:57.531Z,140.62
2019-01-24T10:48:57.596Z,135.00
2019-01-24T10:49:57.518Z,135.00
2019-01-24T10:50:57.508Z,140.62
2019-01-24T10:51:57.510Z,140.62
2019-01-24T10:52:57.487Z,140.62
2019-01-24T10:53:57.465Z,146.25
2019-01-24T10:54:57.495Z,146.25
2019-01-24T10:55:57.450Z,151.88
2019-01-24T10:56:57.452Z,151.88
2019-01-24T10:57:57.441Z,151.88
2019-01-24T10:58:57.421Z,151.88
2019-01-24T10:59:57.412Z,157.50
2019-01-24T11:00:57.485Z,174.38
2019-01-24T11:01:57.380Z,185.62
2019-01-24T11:02:57.377Z,180.00
2019-01-24T11:03:57.389Z,185.62
2019-01-24T11:04:57.350Z,180.00
2019-01-24T11:05:57.416Z,174.38
2019-01-24T11:06:57.341Z,174.38
2019-01-24T11:07:57.383Z,168.75
2019-01-24T11:08:57.336Z,168.75
2019-01-24T11:09:57.306Z,168.75
2019-01-24T11:10:57.290Z,168.75
2019-01-24T11:11:57.282Z,157.50
2019-01-24T11:12:57.276Z,146.25
2019-01-24T11:13:57.351Z,140.62
2019-01-24T11:14:57.323Z,146.25
2019-01-24T11:15:57.286Z,146.25
2019-01-24T11:16:57.262Z,146.25
2019-01-24T11:17:57.236Z,146.25
2019-01-24T11:18:57.217Z,146.25
2019-01-24T11:19:57.274Z,146.25
2019-01-24T11:20:57.190Z,146.25
2019-01-24T11:21:57.428Z,146.25
2019-01-24T11:22:57.157Z,151.88
2019-01-24T11:23:57.175Z,146.25
2019-01-24T11:24:57.154Z,146.25
2019-01-24T11:25:57.226Z,146.25
2019-01-24T11:26:57.199Z,140.62
2019-01-24T11:27:57.227Z,140.62
2019-01-24T11:28:57.113Z,146.25
2019-01-24T11:29:57.086Z,146.25
2019-01-24T11:30:57.196Z,146.25
2019-01-24T11:31:57.089Z,140.62
2019-01-24T11:32:57.059Z,146.25
2019-01-24T11:33:57.052Z,151.88
2019-01-24T11:34:57.162Z,151.88
2019-01-24T11:35:57.108Z,151.88
2019-01-24T11:36:57.466Z,146.25
2019-01-24T11:37:57.294Z,146.25
2019-01-24T11:38:57.038Z,157.50
2019-01-24T11:39:57.203Z,157.50
2019-01-24T11:40:56.974Z,151.88
2019-01-24T11:41:56.979Z,157.50
2019-01-24T11:42:57.279Z,157.50
2019-01-24T11:43:57.141Z,157.50
2019-01-24T11:44:56.985Z,157.50
2019-01-24T11:45:57.006Z,157.50
2019-01-24T11:46:57.100Z,163.12
2019-01-24T11:47:56.896Z,163.12
2019-01-24T11:48:56.885Z,168.75
2019-01-24T11:49:56.898Z,168.75
2019-01-24T11:50:56.864Z,163.12
2019-01-24T11:51:56.854Z,163.12
2019-01-24T11:52:56.928Z,157.50
2019-01-24T11:53:56.827Z,157.50
2019-01-24T11:54:56.860Z,163.12
2019-01-24T11:55:56.814Z,157.50
2019-01-24T11:56:56.803Z,146.25
2019-01-24T11:57:56.789Z,146.25
2019-01-24T11:58:56.861Z,140.62
2019-01-24T11:59:56.825Z,140.62
2019-01-24T12:00:56.773Z,146.25
2019-01-24T12:01:56.776Z,146.25
2019-01-24T12:02:56.737Z,146.25
2019-01-24T12:03:56.763Z,151.88
2019-01-24T12:04:56.754Z,157.50
2019-01-24T12:05:56.711Z,157.50
2019-01-24T12:06:56.755Z,157.50
2019-01-24T12:07:56.682Z,157.50
2019-01-24T12:08:56.694Z,151.88
2019-01-24T12:09:56.682Z,151.88
2019-01-24T12:10:56.655Z,151.88
2019-01-24T12:11:56.670Z,163.12
2019-01-24T12:12:56.766Z,157.50
2019-01-24T12:13:56.612Z,151.88
2019-01-24T12:14:56.617Z,151.88
2019-01-24T12:15:56.591Z,157.50
2019-01-24T12:16:56.585Z,163.12
2019-01-24T12:17:56.618Z,163.12
2019-01-24T12:18:56.639Z,151.88
2019-01-24T12:19:56.615Z,146.25
2019-01-24T12:20:56.563Z,151.88
2019-01-24T12:21:56.523Z,146.25
2019-01-24T12:22:56.551Z,146.25
2019-01-24T12:23:56.563Z,146.25
2019-01-24T12:24:56.531Z,135.00
2019-01-24T12:25:56.587Z,129.38
2019-01-24T12:26:56.497Z,129.38
2019-01-24T12:27:56.472Z,123.75
2019-01-24T12:28:56.478Z,123.75
2019-01-24T12:29:56.475Z,129.38
2019-01-24T12:30:56.447Z,123.75
2019-01-24T12:31:56.529Z,123.75
2019-01-24T12:32:56.407Z,129.38
2019-01-24T12:33:56.417Z,123.75
2019-01-24T12:34:56.402Z,129.38
2019-01-24T12:35:56.388Z,129.38
2019-01-24T12:36:56.362Z,123.75
2019-01-24T12:37:56.452Z,118.12
2019-01-24T12:38:56.379Z,118.12
2019-01-24T12:39:56.372Z,118.12
2019-01-24T12:40:56.337Z,112.50
2019-01-24T12:41:56.328Z,106.88
2019-01-24T12:42:56.343Z,106.88
2019-01-24T12:43:56.411Z,106.88
2019-01-24T12:44:56.290Z,106.88
2019-01-24T12:45:56.331Z,106.88
2019-01-24T12:46:56.267Z,106.88
2019-01-24T12:47:56.297Z,106.88
2019-01-24T12:48:56.236Z,106.88
2019-01-24T12:49:56.240Z,101.25
2019-01-24T12:50:58.916Z,95.62
2019-01-24T12:51:56.260Z,95.62
2019-01-24T12:52:56.235Z,90.00
2019-01-24T12:53:56.237Z,95.62
2019-01-24T12:54:56.183Z,95.62
2019-01-24T12:55:56.931Z,95.62
2019-01-24T12:56:56.169Z,95.62
2019-01-24T12:57:56.223Z,101.25